Time;durP1;ratioP1;P1;durP2;ratioP2;P2;SDS_P1;SDS_P2;PMS_P1;PMS_P2;Temp;Humidity;BMP_temperature;BMP_pressure;BME280_temperature;BME280_humidity;BME280_pressure;Samples;Min_cycle;Max_cycle;Signal;HPM_P1;HPM_P2
2023/03/22 00:00:01;;;;;;;11.50;5.38;;;;;;;9.11;100.00;100811.28;1041837;28;20292;-76
2023/03/22 00:00:36;;;;;;;8.75;5.90;;;;;;;9.16;100.00;100814.13;1045347;28;20307;-75
2023/03/22 00:01:10;;;;;;;9.25;6.28;;;;;;;9.09;100.00;100810.66;1044257;28;20790;-76
2023/03/22 00:01:42;;;;;;;8.93;5.90;;;;;;;9.16;100.00;100816.78;1044117;28;20993;-76
2023/03/22 00:02:15;;;;;;;13.30;5.97;;;;;;;9.17;100.00;100811.25;1045911;28;20298;-76
2023/03/22 00:02:46;;;;;;;10.05;6.18;;;;;;;9.13;100.00;100815.34;1043763;28;20670;-76
2023/03/22 00:03:19;;;;;;;7.93;6.00;;;;;;;9.17;100.00;100805.13;1046939;28;20397;-76
2023/03/22 00:03:51;;;;;;;13.77;6.05;;;;;;;9.12;100.00;100818.22;1041529;28;20311;-76
2023/03/22 00:04:23;;;;;;;10.23;5.70;;;;;;;9.15;100.00;100817.81;1039651;28;20308;-76
2023/03/22 00:04:55;;;;;;;9.77;5.53;;;;;;;9.21;100.00;100809.81;1039319;28;20308;-76
2023/03/22 00:05:29;;;;;;;8.70;6.20;;;;;;;9.25;100.00;100807.56;1040013;28;20411;-76
2023/03/22 00:06:00;;;;;;;12.50;6.13;;;;;;;9.21;100.00;100806.34;1047192;28;20338;-76
2023/03/22 00:06:32;;;;;;;9.35;6.20;;;;;;;9.17;100.00;100810.44;1047959;28;20318;-76
2023/03/22 00:07:04;;;;;;;6.78;5.30;;;;;;;9.09;100.00;100806.16;1048017;28;20299;-76
2023/03/22 00:07:36;;;;;;;13.63;6.50;;;;;;;9.03;100.00;100808.81;1047666;28;20314;-75
2023/03/22 00:08:08;;;;;;;9.48;6.25;;;;;;;9.08;100.00;100804.53;1048029;28;20428;-75
2023/03/22 00:08:40;;;;;;;6.53;4.93;;;;;;;9.08;100.00;100806.38;1046129;28;20851;-75
2023/03/22 00:09:12;;;;;;;8.32;6.60;;;;;;;9.15;100.00;100809.84;1043097;28;20318;-76
2023/03/22 00:09:44;;;;;;;8.98;5.97;;;;;;;9.11;100.00;100805.97;1043469;28;20811;-75
2023/03/22 00:10:16;;;;;;;8.45;5.50;;;;;;;9.10;100.00;100804.31;1041012;28;20824;-75
2023/03/22 00:10:48;;;;;;;14.95;6.03;;;;;;;9.14;100.00;100800.22;1039232;28;20300;-75
2023/03/22 00:11:22;;;;;;;13.82;5.63;;;;;;;9.08;100.00;100796.56;1034876;28;22328;-75
2023/03/22 00:11:54;;;;;;;8.68;6.07;;;;;;;9.15;100.00;100801.84;1035018;28;20435;-75
2023/03/22 00:12:26;;;;;;;6.57;5.43;;;;;;;9.05;100.00;100801.47;1038787;28;20293;-75
2023/03/22 00:12:58;;;;;;;7.03;5.55;;;;;;;9.05;100.00;100807.59;1046770;28;20306;-75
2023/03/22 00:13:30;;;;;;;10.00;5.93;;;;;;;9.12;100.00;100812.91;1043261;28;20291;-75
2023/03/22 00:14:05;;;;;;;8.40;5.82;;;;;;;9.06;100.00;100805.75;1043406;28;20307;-75
2023/03/22 00:14:36;;;;;;;15.80;6.70;;;;;;;9.13;100.00;100799.41;1044767;28;20386;-76
2023/03/22 00:15:09;;;;;;;7.82;5.95;;;;;;;9.10;100.00;100799.81;1046354;28;20301;-75
2023/03/22 00:15:47;;;;;;;9.13;5.80;;;;;;;9.06;100.00;100803.09;1043291;28;20314;-75
2023/03/22 00:16:20;;;;;;;7.25;5.22;;;;;;;8.99;100.00;100806.56;1039322;28;20379;-75
2023/03/22 00:16:52;;;;;;;10.60;6.57;;;;;;;9.04;100.00;100802.47;1041226;28;20291;-75
2023/03/22 00:17:25;;;;;;;10.73;5.80;;;;;;;9.11;100.00;100805.97;1041564;28;20307;-75
2023/03/22 00:17:57;;;;;;;10.80;6.00;;;;;;;9.06;100.00;100803.09;1040224;28;20307;-75
2023/03/22 00:18:29;;;;;;;8.23;6.45;;;;;;;9.09;100.00;100808.81;1046040;28;20955;-75
2023/03/22 00:19:01;;;;;;;7.90;5.13;;;;;;;9.13;100.00;100803.91;1045682;28;20301;-75
2023/03/22 00:19:32;;;;;;;5.65;4.82;;;;;;;9.16;100.00;100801.66;1047197;28;20385;-75
2023/03/22 00:20:06;;;;;;;12.27;6.90;;;;;;;9.18;100.00;100799.59;1043832;28;20315;-76
2023/03/22 00:20:39;;;;;;;9.25;5.15;;;;;;;9.10;100.00;100801.66;1040432;28;20303;-76
2023/03/22 00:21:14;;;;;;;9.25;5.80;;;;;;;9.12;100.00;100807.59;1040739;28;20385;-76
2023/03/22 00:21:46;;;;;;;11.38;6.07;;;;;;;9.07;100.00;100799.44;1039382;28;20303;-76
2023/03/22 00:22:18;;;;;;;7.85;4.80;;;;;;;9.03;100.00;100800.84;1035388;28;20302;-75
2023/03/22 00:22:50;;;;;;;8.38;4.85;;;;;;;9.05;100.00;100801.47;1036512;28;20350;-75
2023/03/22 00:23:22;;;;;;;10.27;5.75;;;;;;;9.09;100.00;100802.69;1032988;28;20297;-75
2023/03/22 00:23:54;;;;;;;10.80;6.22;;;;;;;9.11;100.00;100800.66;1035109;28;20308;-76
2023/03/22 00:24:25;;;;;;;6.78;5.22;;;;;;;9.13;100.00;100798.59;1035669;28;20301;-76
2023/03/22 00:24:58;;;;;;;7.20;5.70;;;;;;;9.13;100.00;100799.41;1040160;28;20766;-76
2023/03/22 00:25:30;;;;;;;12.95;5.18;;;;;;;9.18;100.00;100801.44;1043325;28;20303;-76
2023/03/22 00:26:01;;;;;;;7.03;4.03;;;;;;;9.12;100.00;100804.94;1043832;28;20646;-76
2023/03/22 00:26:33;;;;;;;8.55;4.60;;;;;;;9.17;100.00;100802.47;1043855;28;20353;-76
2023/03/22 00:27:05;;;;;;;12.18;5.15;;;;;;;9.19;100.00;100795.91;1047059;28;20306;-75
2023/03/22 00:27:37;;;;;;;9.55;5.15;;;;;;;9.18;100.00;100799.59;1047039;28;20298;-76
2023/03/22 00:28:10;;;;;;;9.45;6.03;;;;;;;9.13;100.00;100799.41;1039366;28;20300;-76
2023/03/22 00:28:42;;;;;;;9.18;4.60;;;;;;;9.17;100.00;100797.97;1035179;28;20309;-75
2023/03/22 00:29:14;;;;;;;11.93;4.68;;;;;;;9.20;100.00;100796.72;1035828;28;20662;-77
2023/03/22 00:29:46;;;;;;;8.85;4.97;;;;;;;9.13;100.00;100793.28;1036187;28;20347;-76
2023/03/22 00:30:19;;;;;;;7.22;4.47;;;;;;;9.08;100.00;100796.56;1044476;28;20295;-75
2023/03/22 00:30:59;;;;;;;6.30;4.30;;;;;;;9.06;100.00;100797.78;1047729;28;20286;-75
2023/03/22 00:31:30;;;;;;;8.50;5.75;;;;;;;9.11;100.00;100795.31;1044876;28;20283;-75
2023/03/22 00:32:03;;;;;;;9.45;5.43;;;;;;;9.12;100.00;100791.66;1047455;28;20299;-75
2023/03/22 00:32:36;;;;;;;9.48;5.00;;;;;;;9.10;100.00;100805.13;1041459;28;20382;-75
2023/03/22 00:33:08;;;;;;;6.95;5.72;;;;;;;9.10;100.00;100794.50;1044273;28;20295;-75
2023/03/22 00:33:40;;;;;;;9.77;5.13;;;;;;;9.09;100.00;100792.06;1047056;28;20374;-75
2023/03/22 00:34:14;;;;;;;9.10;4.68;;;;;;;9.04;100.00;100794.50;1047229;28;20325;-75
2023/03/22 00:34:45;;;;;;;9.93;4.93;;;;;;;9.13;100.00;100794.09;1044813;28;20297;-75
2023/03/22 00:35:17;;;;;;;9.20;4.68;;;;;;;9.07;100.00;100797.59;1043274;28;20311;-75
2023/03/22 00:35:57;;;;;;;6.53;5.15;;;;;;;9.05;100.00;100791.66;1044975;28;20386;-75
2023/03/22 00:36:29;;;;;;;11.23;4.82;;;;;;;9.06;100.00;100793.28;1047412;28;20400;-75
2023/03/22 00:37:01;;;;;;;6.22;4.93;;;;;;;9.08;100.00;100790.44;1047502;28;20588;-75
2023/03/22 00:37:33;;;;;;;5.82;4.57;;;;;;;9.10;100.00;100791.03;1043238;28;20307;-75
2023/03/22 00:38:05;;;;;;;12.55;5.05;;;;;;;9.12;100.00;100796.97;1040162;28;20295;-76
2023/03/22 00:38:37;;;;;;;7.82;3.97;;;;;;;9.05;100.00;100786.34;1040275;28;20307;-75
2023/03/22 00:39:14;;;;;;;9.38;4.10;;;;;;;8.97;100.00;100800.66;1039413;28;20304;-75
2023/03/22 00:39:46;;;;;;;9.55;4.38;;;;;;;9.06;100.00;100797.78;1035026;28;20837;-75
2023/03/22 00:40:18;;;;;;;8.35;4.03;;;;;;;9.03;100.00;100800.84;1036416;28;20308;-75
2023/03/22 00:40:50;;;;;;;9.85;5.00;;;;;;;8.97;100.00;100790.03;1038426;28;20815;-75
2023/03/22 00:41:22;;;;;;;10.07;4.97;;;;;;;8.94;100.00;100795.75;1039734;28;20666;-75
2023/03/22 00:41:54;;;;;;;9.23;4.57;;;;;;;8.90;100.00;100799.84;1043378;28;20343;-75
2023/03/22 00:42:26;;;;;;;12.93;4.88;;;;;;;8.97;100.00;100787.38;1039137;28;20304;-75
2023/03/22 00:42:58;;;;;;;7.65;4.70;;;;;;;9.05;100.00;100786.34;1038896;28;20453;-75
2023/03/22 00:43:32;;;;;;;9.05;4.50;;;;;;;9.02;100.00;100801.88;1039433;28;20434;-75
2023/03/22 00:44:03;;;;;;;8.75;4.75;;;;;;;9.01;100.00;100795.72;1039249;28;20817;-75
2023/03/22 00:44:35;;;;;;;9.65;4.57;;;;;;;8.97;100.00;100789.22;1039790;28;20817;-75
2023/03/22 00:45:09;;;;;;;8.93;4.90;;;;;;;8.95;100.00;100792.06;1039202;28;20296;-75
2023/03/22 00:45:41;;;;;;;7.28;4.57;;;;;;;8.99;100.00;100795.13;1035972;28;20297;-75
2023/03/22 00:46:15;;;;;;;10.02;4.95;;;;;;;8.95;100.00;100797.38;1036912;28;20307;-75
2023/03/22 00:46:46;;;;;;;6.05;4.40;;;;;;;8.89;100.00;100790.25;1038384;28;20303;-75
2023/03/22 00:47:18;;;;;;;8.98;3.92;;;;;;;8.95;100.00;100793.91;1043877;28;20307;-75
2023/03/22 00:47:50;;;;;;;8.25;4.93;;;;;;;8.88;100.00;100796.59;1043893;28;20333;-75
2023/03/22 00:48:22;;;;;;;7.47;4.03;;;;;;;8.86;100.00;100792.50;1047386;28;20642;-75
2023/03/22 00:48:54;;;;;;;7.78;4.22;;;;;;;8.88;100.00;100793.94;1046449;28;20694;-76
2023/03/22 00:49:26;;;;;;;6.35;4.30;;;;;;;8.85;100.00;100790.88;1043155;28;20341;-76
2023/03/22 00:49:58;;;;;;;9.18;4.45;;;;;;;8.92;100.00;100787.19;1039389;28;20296;-76
2023/03/22 00:50:30;;;;;;;8.00;4.85;;;;;;;8.88;100.00;100790.47;1035152;28;20315;-75
2023/03/22 00:51:02;;;;;;;7.95;4.65;;;;;;;8.89;100.00;100781.47;1038152;28;20710;-76
2023/03/22 00:51:36;;;;;;;10.75;5.40;;;;;;;8.93;100.00;100780.84;1035802;28;20311;-76
2023/03/22 00:52:07;;;;;;;5.90;4.10;;;;;;;8.95;100.00;100792.06;1039394;28;20308;-75
2023/03/22 00:52:39;;;;;;;7.95;4.22;;;;;;;8.87;100.00;100791.47;1037440;28;20299;-76
2023/03/22 00:53:11;;;;;;;8.98;4.70;;;;;;;8.83;100.00;100788.41;1034608;28;20315;-75
2023/03/22 00:53:43;;;;;;;10.05;4.63;;;;;;;8.84;100.00;100790.06;1042957;28;20314;-76
2023/03/22 00:54:16;;;;;;;8.10;4.20;;;;;;;8.85;100.00;100789.03;1042046;28;20318;-76
2023/03/22 00:54:47;;;;;;;7.13;4.90;;;;;;;8.93;100.00;100785.34;1038952;28;20430;-76
2023/03/22 00:55:19;;;;;;;8.15;4.45;;;;;;;8.88;100.00;100785.13;1035641;28;20309;-75
2023/03/22 00:55:51;;;;;;;6.38;4.72;;;;;;;8.83;100.00;100777.78;1038944;28;20374;-76
2023/03/22 00:56:24;;;;;;;7.32;4.40;;;;;;;8.87;100.00;100783.50;1042351;28;20306;-76
2023/03/22 00:57:04;;;;;;;8.52;4.43;;;;;;;8.85;100.00;100781.06;1037012;28;20335;-76
2023/03/22 00:57:36;;;;;;;9.45;4.57;;;;;;;8.94;100.00;100781.66;1041019;28;20766;-75
2023/03/22 00:58:08;;;;;;;5.60;3.72;;;;;;;8.94;100.00;100779.81;1039403;28;20304;-76
2023/03/22 00:58:41;;;;;;;10.85;4.97;;;;;;;8.92;100.00;100781.84;1037030;28;20806;-76
2023/03/22 00:59:13;;;;;;;9.10;3.97;;;;;;;8.95;100.00;100781.44;1034714;28;20388;-75
2023/03/22 00:59:46;;;;;;;4.30;3.90;;;;;;;8.98;100.00;100775.72;1031527;28;20328;-75
2023/03/22 01:00:18;;;;;;;6.13;4.15;;;;;;;8.99;100.00;100776.53;1029899;28;20305;-75
2023/03/22 01:00:50;;;;;;;6.45;4.10;;;;;;;8.89;100.00;100776.16;1035061;28;20309;-75
2023/03/22 01:01:21;;;;;;;9.60;4.53;;;;;;;8.92;100.00;100779.19;1031804;28;20313;-75
2023/03/22 01:01:55;;;;;;;5.03;4.00;;;;;;;8.96;100.00;100779.59;1033676;28;20300;-75
2023/03/22 01:02:28;;;;;;;8.13;3.53;;;;;;;8.95;100.00;100776.13;1036228;28;20447;-75
2023/03/22 01:03:03;;;;;;;12.27;4.45;;;;;;;8.96;100.00;100772.44;1033181;28;20712;-75
2023/03/22 01:03:34;;;;;;;5.72;3.97;;;;;;;8.88;100.00;100775.34;1031529;28;20427;-75
2023/03/22 01:04:07;;;;;;;6.60;4.13;;;;;;;8.91;100.00;100776.75;1033600;28;20886;-76
2023/03/22 01:04:45;;;;;;;9.13;4.78;;;;;;;8.86;100.00;100777.38;1034521;28;20302;-75
2023/03/22 01:05:20;;;;;;;12.45;4.05;;;;;;;8.86;100.00;100777.38;1029808;28;20863;-76
2023/03/22 01:05:55;;;;;;;6.38;4.22;;;;;;;8.82;100.00;100773.50;1032542;28;20308;-76
2023/03/22 01:06:27;;;;;;;5.60;3.53;;;;;;;8.83;100.00;100775.13;1031657;28;20297;-76
2023/03/22 01:07:00;;;;;;;6.40;3.78;;;;;;;8.91;100.00;100768.78;1033801;28;20317;-76
2023/03/22 01:07:32;;;;;;;8.50;4.05;;;;;;;8.96;100.00;100767.13;1038326;28;20312;-75
2023/03/22 01:08:09;;;;;;;6.55;4.05;;;;;;;8.88;100.00;100763.88;1034097;28;20660;-75
2023/03/22 01:08:41;;;;;;;9.00;5.50;;;;;;;8.81;100.00;100769.22;1037809;28;20292;-75
2023/03/22 01:09:13;;;;;;;8.85;3.65;;;;;;;8.80;100.00;100772.91;1042202;28;20361;-75
2023/03/22 01:09:49;;;;;;;5.68;3.45;;;;;;;8.82;100.00;100773.50;1048860;28;20290;-75
2023/03/22 01:10:21;;;;;;;9.05;3.80;;;;;;;8.86;100.00;100771.25;1049227;28;20994;-76
2023/03/22 01:10:52;;;;;;;11.57;5.43;;;;;;;8.91;100.00;100772.25;1042308;28;20832;-76
2023/03/22 01:11:25;;;;;;;8.75;4.53;;;;;;;8.89;100.00;100766.34;1041243;28;20295;-76
2023/03/22 01:11:57;;;;;;;6.30;4.65;;;;;;;8.84;100.00;100768.00;1038276;28;20362;-76
2023/03/22 01:12:29;;;;;;;3.97;3.40;;;;;;;8.89;100.00;100766.34;1040726;28;20345;-77
2023/03/22 01:13:01;;;;;;;4.68;3.22;;;;;;;8.93;100.00;100766.75;1041121;28;20314;-76
2023/03/22 01:13:33;;;;;;;6.30;4.88;;;;;;;8.91;100.00;100761.63;1043015;28;20333;-76
2023/03/22 01:14:08;;;;;;;13.25;4.35;;;;;;;8.97;100.00;100762.63;1045745;28;20295;-75
2023/03/22 01:14:40;;;;;;;10.98;4.43;;;;;;;8.98;100.00;100764.28;1047111;28;20301;-75
2023/03/22 01:15:12;;;;;;;7.00;3.95;;;;;;;9.01;100.00;100769.16;1042557;28;20311;-76
2023/03/22 01:15:46;;;;;;;6.38;4.07;;;;;;;8.95;100.00;100762.03;1038128;28;20726;-75
2023/03/22 01:16:18;;;;;;;8.38;4.13;;;;;;;8.90;100.00;100767.16;1036486;28;20300;-76
2023/03/22 01:16:53;;;;;;;7.68;3.20;;;;;;;8.99;100.00;100764.06;1027336;28;20652;-75
2023/03/22 01:17:25;;;;;;;7.05;3.50;;;;;;;9.02;100.00;100760.16;1032100;28;20824;-76
2023/03/22 01:17:57;;;;;;;14.82;3.92;;;;;;;8.97;100.00;100759.97;1032351;28;20300;-76
2023/03/22 01:18:29;;;;;;;12.27;4.50;;;;;;;8.98;100.00;100757.13;1040802;28;20785;-76
2023/03/22 01:19:02;;;;;;;9.25;3.75;;;;;;;8.94;100.00;100758.56;1042827;28;20721;-74
2023/03/22 01:19:35;;;;;;;8.40;4.05;;;;;;;8.95;100.00;100757.53;1037836;28;20666;-74
2023/03/22 01:20:08;;;;;;;9.75;3.65;;;;;;;8.98;100.00;100759.78;1024307;28;20433;-75
2023/03/22 01:20:40;;;;;;;8.63;3.38;;;;;;;8.86;100.00;100753.47;1025175;28;20326;-75
2023/03/22 01:21:12;;;;;;;5.93;3.40;;;;;;;8.90;100.00;100751.22;1029808;28;20317;-74
2023/03/22 01:21:45;;;;;;;6.95;3.50;;;;;;;8.87;100.00;100747.13;1034050;28;20316;-74
2023/03/22 01:22:17;;;;;;;5.63;3.50;;;;;;;8.92;100.00;100755.28;1040638;28;20319;-75
2023/03/22 01:22:49;;;;;;;5.88;4.25;;;;;;;8.87;100.00;100752.44;1034667;28;20301;-74
2023/03/22 01:23:20;;;;;;;8.05;4.55;;;;;;;8.83;100.00;100750.41;1035132;28;20311;-75
2023/03/22 01:23:52;;;;;;;6.65;3.55;;;;;;;8.79;100.00;100755.34;1037826;28;20300;-75
2023/03/22 01:24:24;;;;;;;6.50;3.70;;;;;;;8.85;100.00;100754.50;1036610;28;20432;-75
2023/03/22 01:24:55;;;;;;;9.30;4.00;;;;;;;8.86;100.00;100750.81;1040899;28;20304;-75
2023/03/22 01:25:27;;;;;;;7.50;3.67;;;;;;;8.87;100.00;100746.31;1037452;28;20323;-74
2023/03/22 01:26:00;;;;;;;7.70;4.03;;;;;;;8.94;100.00;100749.78;1038087;28;20340;-75
2023/03/22 01:26:32;;;;;;;7.25;4.82;;;;;;;8.94;100.00;100747.94;1035698;28;20367;-75
2023/03/22 01:27:03;;;;;;;9.73;4.85;;;;;;;8.90;100.00;100752.03;1036570;28;20942;-75
2023/03/22 01:27:35;;;;;;;6.07;3.92;;;;;;;8.99;100.00;100748.13;1036220;28;20309;-75
2023/03/22 01:28:07;;;;;;;6.63;3.85;;;;;;;8.95;100.00;100749.56;1044715;28;20657;-75
2023/03/22 01:28:39;;;;;;;9.50;4.38;;;;;;;8.91;100.00;100753.66;1041530;28;20729;-75
2023/03/22 01:29:11;;;;;;;9.07;3.92;;;;;;;8.84;100.00;100747.56;1040706;28;20811;-75
2023/03/22 01:29:43;;;;;;;7.20;4.40;;;;;;;8.80;100.00;100746.34;1037889;28;20300;-75
2023/03/22 01:30:14;;;;;;;5.63;4.15;;;;;;;8.78;100.00;100753.69;1039825;28;20304;-74
2023/03/22 01:30:46;;;;;;;8.38;4.50;;;;;;;8.79;100.00;100743.91;1043201;28;20314;-75
2023/03/22 01:31:18;;;;;;;8.88;3.65;;;;;;;8.79;100.00;100749.19;1041062;28;20332;-75
2023/03/22 01:31:50;;;;;;;6.35;3.97;;;;;;;8.78;100.00;100748.38;1040741;28;20307;-75
2023/03/22 01:32:22;;;;;;;7.07;3.85;;;;;;;8.74;100.00;100749.78;1040499;28;20303;-74
2023/03/22 01:32:54;;;;;;;4.75;3.05;;;;;;;8.71;100.00;100747.56;1036447;28;20667;-75
2023/03/22 01:33:25;;;;;;;10.38;4.18;;;;;;;8.84;100.00;100742.25;1036308;28;20805;-75
2023/03/22 01:33:57;;;;;;;5.22;3.88;;;;;;;8.72;100.00;100745.72;1035907;28;20309;-75
2023/03/22 01:34:30;;;;;;;9.07;3.63;;;;;;;8.77;100.00;100741.44;1037005;28;20395;-75
2023/03/22 01:35:03;;;;;;;8.23;4.72;;;;;;;8.81;100.00;100737.34;1033711;28;20696;-75
2023/03/22 01:35:36;;;;;;;7.65;5.05;;;;;;;8.83;100.00;100739.78;1032843;28;20301;-74
2023/03/22 01:36:09;;;;;;;7.47;3.80;;;;;;;8.82;100.00;100738.97;1037506;28;20750;-75
2023/03/22 01:36:41;;;;;;;4.82;3.40;;;;;;;8.83;100.00;100734.47;1036211;28;20320;-75
2023/03/22 01:37:13;;;;;;;9.00;3.80;;;;;;;8.79;100.00;100734.09;1038432;28;20756;-74
2023/03/22 01:37:48;;;;;;;9.73;5.28;;;;;;;8.77;100.00;100736.13;1040758;28;20304;-75
2023/03/22 01:38:21;;;;;;;5.13;3.42;;;;;;;8.79;100.00;100733.28;1037394;28;20447;-75
2023/03/22 01:39:00;;;;;;;7.63;3.80;;;;;;;8.64;100.00;100741.44;1036097;28;20331;-75
2023/03/22 01:39:32;;;;;;;8.70;4.22;;;;;;;8.66;100.00;100739.41;1037699;28;20690;-75
2023/03/22 01:40:09;;;;;;;5.75;4.07;;;;;;;8.62;100.00;100731.03;1038348;28;20823;-74
2023/03/22 01:40:41;;;;;;;11.70;4.88;;;;;;;8.64;100.00;100736.13;1043070;28;20295;-75
2023/03/22 01:41:15;;;;;;;5.00;3.47;;;;;;;8.69;100.00;100728.38;1039758;28;20339;-75
2023/03/22 01:41:47;;;;;;;8.07;4.32;;;;;;;8.61;100.00;100726.75;1037375;28;20312;-75
2023/03/22 01:42:22;;;;;;;9.75;4.63;;;;;;;8.56;100.00;100733.69;1035422;28;20312;-75
2023/03/22 01:42:56;;;;;;;9.15;3.95;;;;;;;8.55;100.00;100732.06;1028242;28;21568;-74
2023/03/22 01:43:27;;;;;;;6.05;3.90;;;;;;;8.60;100.00;100729.59;1030799;28;20861;-75
2023/03/22 01:44:18;;;;;;;8.65;4.35;;;;;;;8.69;100.00;100725.72;1034617;28;20411;-75
2023/03/22 01:45:16;;;;;;;5.57;3.67;;;;;;;8.61;100.00;100725.94;1036500;28;20316;-75
2023/03/22 01:45:50;;;;;;;4.00;3.33;;;;;;;8.60;100.00;100719.00;1035345;28;20303;-74
2023/03/22 01:46:24;;;;;;;5.95;3.45;;;;;;;8.58;100.00;100721.03;1033229;28;20496;-75
2023/03/22 01:46:56;;;;;;;8.45;4.28;;;;;;;8.63;100.00;100713.25;1040651;28;20300;-76
2023/03/22 01:47:28;;;;;;;7.65;4.07;;;;;;;8.63;100.00;100718.56;1037447;28;20656;-75
2023/03/22 01:48:04;;;;;;;9.98;3.97;;;;;;;8.66;100.00;100718.16;1036662;28;20849;-75
2023/03/22 01:48:44;;;;;;;7.63;3.75;;;;;;;8.60;100.00;100711.03;1034333;28;20734;-75
2023/03/22 01:49:25;;;;;;;11.60;4.47;;;;;;;8.61;100.00;100715.31;1030453;28;20121;-75
2023/03/22 01:49:57;;;;;;;12.10;4.78;;;;;;;8.52;100.00;100721.88;1039352;28;20300;-75
2023/03/22 01:50:30;;;;;;;6.20;3.72;;;;;;;8.56;100.00;100720.44;1043258;28;20311;-76
2023/03/22 01:51:07;;;;;;;5.05;3.75;;;;;;;8.66;100.00;100707.53;1039926;28;20885;-75
2023/03/22 01:51:48;;;;;;;7.32;5.32;;;;;;;8.64;100.00;100709.59;1038064;28;20319;-74
2023/03/22 01:52:25;;;;;;;6.00;4.13;;;;;;;8.65;100.00;100706.72;1039954;28;20951;-75
2023/03/22 01:53:12;;;;;;;8.82;4.55;;;;;;;8.76;100.00;100710.56;1040068;28;20307;-75
2023/03/22 01:53:49;;;;;;;6.70;4.20;;;;;;;8.71;100.00;100710.38;1036100;28;20319;-75
2023/03/22 01:54:21;;;;;;;7.25;4.32;;;;;;;8.72;100.00;100706.69;1033158;28;20305;-76
2023/03/22 01:54:53;;;;;;;5.47;3.80;;;;;;;8.68;100.00;100708.16;1033430;28;20302;-75
2023/03/22 01:55:48;;;;;;;10.07;5.13;;;;;;;8.66;100.00;100708.34;1032459;28;20286;-75
2023/03/22 01:56:30;;;;;;;9.77;4.68;;;;;;;8.67;100.00;100703.84;1036552;28;20679;-75
2023/03/22 01:57:02;;;;;;;6.35;3.95;;;;;;;8.79;100.00;100704.88;1039968;28;20677;-75
2023/03/22 01:57:42;;;;;;;7.72;3.95;;;;;;;8.68;100.00;100701.00;1032003;28;20902;-75
2023/03/22 01:58:22;;;;;;;;;;;;;;;8.63;100.00;100702.66;1039328;28;20362;-75
2023/03/22 01:58:59;;;;;;;11.25;3.72;;;;;;;8.62;100.00;100695.69;1037174;28;19928;-75
2023/03/22 01:59:41;;;;;;;4.22;3.30;;;;;;;8.66;100.00;100696.91;1034034;28;20672;-76
2023/03/22 02:00:22;;;;;;;9.80;4.28;;;;;;;8.60;100.00;100697.75;1024541;28;20313;-75
2023/03/22 02:01:16;;;;;;;7.57;3.25;;;;;;;8.48;100.00;100699.38;1040734;28;20297;-74
2023/03/22 02:01:53;;;;;;;7.72;3.85;;;;;;;8.38;100.00;100699.81;1040416;28;20304;-75
2023/03/22 02:02:29;;;;;;;6.50;3.65;;;;;;;8.35;100.00;100695.72;1040341;28;20308;-75
2023/03/22 02:03:11;;;;;;;6.20;4.28;;;;;;;8.32;100.00;100685.50;1032520;28;20298;-75
2023/03/22 02:04:14;;;;;;;9.95;4.13;;;;;;;8.24;100.00;100693.66;1032565;28;20305;-75
2023/03/22 02:04:49;;;;;;;5.60;3.28;;;;;;;8.21;100.00;100683.44;1035087;28;20398;-75
2023/03/22 02:05:21;;;;;;;8.90;4.18;;;;;;;8.26;100.00;100686.31;1039575;28;20686;-75
2023/03/22 02:05:53;;;;;;;6.18;3.47;;;;;;;8.35;100.00;100679.81;1039617;28;20303;-75
2023/03/22 02:06:28;;;;;;;6.63;3.90;;;;;;;8.48;100.00;100683.44;1036845;28;20315;-75
2023/03/22 02:07:14;;;;;;;8.48;3.72;;;;;;;8.47;100.00;100681.81;1030497;28;20350;-75
2023/03/22 02:07:48;;;;;;;5.80;3.50;;;;;;;8.38;100.00;100678.56;1036197;28;20794;-76
2023/03/22 02:08:21;;;;;;;5.65;3.35;;;;;;;8.37;100.00;100682.25;1036401;28;20304;-75
2023/03/22 02:09:01;;;;;;;6.40;4.10;;;;;;;8.32;100.00;100685.50;1040519;28;20311;-75
2023/03/22 02:09:32;;;;;;;8.63;4.22;;;;;;;8.22;100.00;100678.97;1042395;28;20046;-75
2023/03/22 02:10:16;;;;;;;9.10;3.53;;;;;;;8.15;100.00;100672.84;1042444;28;20431;-75
2023/03/22 02:10:55;;;;;;;6.43;3.65;;;;;;;8.18;100.00;100677.72;1035526;28;20662;-75
2023/03/22 02:11:40;;;;;;;5.18;3.75;;;;;;;8.31;100.00;100673.25;1032080;28;20050;-75
2023/03/22 02:12:45;;;;;;;5.35;3.13;;;;;;;8.25;100.00;100668.78;1028489;28;20381;-75
2023/03/22 02:14:13;;;;;;;6.38;3.85;;;;;;;7.91;100.00;100671.59;1029759;28;20316;-75
2023/03/22 02:15:23;;;;;;;5.15;3.35;;;;;;;7.91;100.00;100674.25;1029306;28;20334;-75
2023/03/22 02:16:25;;;;;;;7.10;3.42;;;;;;;8.07;100.00;100668.56;1039402;28;20311;-75
2023/03/22 02:17:26;;;;;;;8.90;3.00;;;;;;;7.96;100.00;100659.38;1038533;28;20315;-75
2023/03/22 02:18:05;;;;;;;4.85;3.63;;;;;;;7.86;100.00;100669.56;1038359;28;20045;-75
2023/03/22 02:18:58;;;;;;;6.78;3.53;;;;;;;7.93;100.00;100664.25;1031672;28;20305;-75
2023/03/22 02:19:44;;;;;;;7.60;4.60;;;;;;;8.03;100.00;100662.84;1037233;28;20306;-75
2023/03/22 02:20:16;;;;;;;7.80;3.60;;;;;;;7.90;100.00;100659.34;1036739;28;20311;-75
2023/03/22 02:20:59;;;;;;;8.00;4.65;;;;;;;7.97;100.00;100665.50;1035761;28;20297;-75
2023/03/22 02:22:03;;;;;;;5.82;3.80;;;;;;;8.01;100.00;100664.06;1037244;28;20308;-75
2023/03/22 02:22:58;;;;;;;8.77;4.32;;;;;;;8.01;100.00;100661.41;1042081;28;20304;-75
2023/03/22 02:24:03;;;;;;;11.13;4.40;;;;;;;7.85;100.00;100662.63;1035883;28;20305;-76
2023/03/22 02:24:50;;;;;;;7.30;3.80;;;;;;;7.92;100.00;100662.63;1035084;28;20305;-75
2023/03/22 02:25:26;;;;;;;8.27;4.93;;;;;;;7.88;100.00;100661.41;1037236;28;20304;-74
2023/03/22 02:26:12;;;;;;;6.13;4.70;;;;;;;7.80;100.00;100653.66;1039963;28;20296;-75
2023/03/22 02:27:14;;;;;;;8.02;4.50;;;;;;;7.88;100.00;100656.09;1039849;28;20415;-75
2023/03/22 02:28:03;;;;;;;6.90;5.07;;;;;;;7.96;100.00;100662.03;1043481;28;20299;-75
2023/03/22 02:28:51;;;;;;;15.25;4.75;;;;;;;8.04;100.00;100655.69;1042296;28;20346;-75
2023/03/22 02:29:43;;;;;;;7.55;5.13;;;;;;;8.00;100.00;100657.13;1040538;28;20443;-75
2023/03/22 02:30:36;;;;;;;10.32;5.25;;;;;;;7.95;100.00;100657.75;1044499;28;20597;-74
2023/03/22 02:31:23;;;;;;;7.03;4.88;;;;;;;8.01;100.00;100648.16;1047299;28;20372;-75
2023/03/22 02:31:57;;;;;;;7.05;4.60;;;;;;;8.03;100.00;100644.28;1041363;28;20345;-75
2023/03/22 02:32:31;;;;;;;7.05;5.53;;;;;;;8.07;100.00;100649.97;1035591;28;20296;-75
2023/03/22 02:33:32;;;;;;;10.57;6.35;;;;;;;8.04;100.00;100645.91;1042345;28;20310;-75
2023/03/22 02:34:28;;;;;;;12.43;6.38;;;;;;;8.14;100.00;100649.97;1036831;28;20318;-75
2023/03/22 02:35:30;;;;;;;7.80;5.72;;;;;;;8.13;100.00;100649.16;1027357;28;20336;-76
2023/03/22 02:36:11;;;;;;;11.25;6.47;;;;;;;8.05;100.00;100649.38;1040354;28;20359;-75
2023/03/22 02:37:12;;;;;;;10.02;6.18;;;;;;;8.10;100.00;100649.56;1040956;28;20316;-74
2023/03/22 02:38:02;;;;;;;12.43;5.60;;;;;;;8.07;100.00;100639.38;1042164;28;20519;-75
2023/03/22 02:39:21;;;;;;;9.50;6.00;;;;;;;8.21;100.00;100645.47;1036647;28;20313;-74
2023/03/22 02:40:02;;;;;;;9.23;5.78;;;;;;;8.11;100.00;100643.25;1030467;28;20309;-76
2023/03/22 02:40:51;;;;;;;11.77;6.15;;;;;;;8.22;100.00;100652.44;1034776;28;20308;-73
2023/03/22 02:41:47;;;;;;;10.02;6.00;;;;;;;8.16;100.00;100648.75;1034899;28;20301;-76
2023/03/22 02:42:22;;;;;;;13.98;6.78;;;;;;;8.27;100.00;100640.19;1039670;28;20315;-74
2023/03/22 02:43:00;;;;;;;12.27;6.85;;;;;;;8.27;100.00;100640.19;1039733;28;20314;-73
2023/03/22 02:43:55;;;;;;;9.95;6.65;;;;;;;8.27;100.00;100632.22;1033296;28;20371;-76
2023/03/22 02:44:41;;;;;;;11.63;7.43;;;;;;;8.29;100.00;100634.66;1022117;28;20312;-76
2023/03/22 02:45:29;;;;;;;8.80;6.07;;;;;;;8.39;100.00;100636.94;1032547;28;20715;-76
2023/03/22 02:46:09;;;;;;;15.20;7.97;;;;;;;8.36;100.00;100632.84;1036181;28;20289;-75
2023/03/22 02:46:45;;;;;;;14.25;6.95;;;;;;;8.44;100.00;100639.78;1035960;28;20374;-75
2023/03/22 02:47:38;;;;;;;12.32;6.25;;;;;;;8.24;100.00;100640.59;1031472;28;20042;-76
2023/03/22 02:48:12;;;;;;;10.55;6.85;;;;;;;8.26;100.00;100625.28;1027911;28;20305;-75
2023/03/22 02:49:01;;;;;;;11.60;6.68;;;;;;;8.35;100.00;100625.91;1035418;28;20431;-76
2023/03/22 02:49:37;;;;;;;11.40;6.88;;;;;;;8.34;100.00;100630.41;1038516;28;20358;-75